Penticton Airport
CYYF : now visible

Airfield :











YOU CAN JOIN US ON...

 
LOGIN :

Register | Disclaimer

   EN    FR    IT 

 









Legend :    VFR   Marginal VFR   IFR   Intensive IFR   Very Intensive IFR
Visi :
Ceiling :
>= 8 km
>= 3000ft
5 to 8 km
1000 to 3000 ft
1500m to 5 km
500 to 1000 ft
800 to 1500m
200 to 500 ft
< 800m
< 200 ft
Symbols :   Thunderstorms  Fog  Heavy snow  Heavy precipitations  Wind > 20 kt






- Airport Elevation : 1129 ft
- IATA code : YYF


CYYF - Penticton

CURRENT METAR :
  • 272100Z 17020G33KT 15SM SCT070 OVC130 20/07 A2963 RMK AC4AC4 SLP036 DENSITY ALT 2300FT

EXPIRED METARs :
  • 272042Z 18018G24KT 15SM FEW030 SCT070 OVC130 20/08 A2964 RMK CU1AC3AC4 SLP037 DENSITY ALT 2300FT
  • 272000Z 16013G23KT 15SM -SHRA FEW030 SCT070 OVC120 19/10 A2963 RMK CF1CU3AC4 SLP036 DENSITY ALT 2200FT
  • 271925Z 17009G15KT 15SM -SHRA SCT042 BKN075 OVC120 19/12 A2964 RMK CU3AC3AC2 PRESFR SLP039 DENSITY ALT 2200FT
  • 271900Z 17011G18KT 15SM FEW040 SCT070 OVC140 19/12 A2967 RMK CU1AC4AC3 SLP049 DENSITY ALT 2200FT

TAF TAF CYYF
Valid from the 27 at 19:00 until the 28 at 07:00 UTC


271838Z 2719/2807 19010G20KT P6SM SCT050 BKN150
TEMPO 2719/2803 P6SM -SHRA BKN040
BECMG 2719/2721 18015G25KT
FM280300 18012KT P6SM SCT020 BKN080
TEMPO 2803/2807 2SM -SHRA BR BKN020 RMK NXT FCST BY 280100Z
CZVR FIR / North America



MET'MAP, your aeronautical weather chart ! - Copyright ORBIFLY December 2007 - Disclaimer

ORBIFLY MET'MAP TEAM :

Programming & Development : Alexandra Zaïnal
Concept & original design : Baudouin d'Aumeries
Assistance for programming : Marc-Olivier Méhu
Technical & hardware support : Manuel Goepfert

Contact : metmap@orbifly.com




SOURCES & CREDITS :

   NOAA       Earth
Advisory